Time;durP1;ratioP1;P1;durP2;ratioP2;P2;SDS_P1;SDS_P2;PMS_P1;PMS_P2;Temp;Humidity;BMP_temperature;BMP_pressure;BME280_temperature;BME280_humidity;BME280_pressure;Samples;Min_cycle;Max_cycle;Signal;HPM_P1;HPM_P2
2022/06/15 00:01:18;;;;;;;3.97;3.03;;;;;;;;;;5087694;28;20592;-75
2022/06/15 00:03:46;;;;;;;4.63;2.87;;;;;;;;;;5086642;28;20225;-76
2022/06/15 00:06:15;;;;;;;4.50;3.43;;;;;;;;;;5088255;28;20201;-76
2022/06/15 00:08:44;;;;;;;4.17;3.10;;;;;;;;;;5082462;28;20233;-76
2022/06/15 00:11:13;;;;;;;5.47;3.80;;;;;;;;;;5068697;28;20193;-76
2022/06/15 00:13:40;;;;;;;4.93;3.60;;;;;;;;;;5082757;28;20216;-76
2022/06/15 00:16:08;;;;;;;3.87;3.50;;;;;;;;;;5088349;28;20209;-75
2022/06/15 00:18:36;;;;;;;4.20;3.80;;;;;;;;;;5070333;28;20581;-76
2022/06/15 00:21:05;;;;;;;6.57;3.97;;;;;;;;;;5087717;28;20258;-76
2022/06/15 00:23:33;;;;;;;5.80;3.40;;;;;;;;;;5086915;28;20270;-75
2022/06/15 00:26:01;;;;;;;7.17;3.53;;;;;;;;;;5069115;28;20213;-76
2022/06/15 00:28:28;;;;;;;4.70;3.43;;;;;;;;;;5067912;28;20225;-76
2022/06/15 00:30:56;;;;;;;6.50;3.97;;;;;;;;;;5067890;28;20217;-75
2022/06/15 00:33:28;;;;;;;5.47;3.40;;;;;;;;;;5050617;28;20489;-75
2022/06/15 00:35:59;;;;;;;5.50;3.20;;;;;;;;;;5049809;28;20220;-75
2022/06/15 00:38:28;;;;;;;4.80;3.00;;;;;;;;;;5068235;28;20209;-75
2022/06/15 00:40:56;;;;;;;6.20;3.50;;;;;;;;;;5088111;28;20207;-75
2022/06/15 00:43:37;;;;;;;6.00;3.40;;;;;;;;;;5070008;28;20695;-74
2022/06/15 00:46:18;;;;;;;5.07;2.70;;;;;;;;;;5088057;28;20689;-76
2022/06/15 00:48:47;;;;;;;5.43;3.00;;;;;;;;;;5087496;28;20225;-76
2022/06/15 00:51:15;;;;;;;3.43;3.13;;;;;;;;;;5087648;28;20246;-75
2022/06/15 00:53:43;;;;;;;4.70;3.20;;;;;;;;;;5087350;28;20285;-76
2022/06/15 00:56:11;;;;;;;3.53;3.03;;;;;;;;;;5090431;28;20250;-76
2022/06/15 00:58:39;;;;;;;4.97;3.10;;;;;;;;;;5083823;28;20216;-76
2022/06/15 01:01:07;;;;;;;4.20;3.40;;;;;;;;;;5052089;28;20237;-76
2022/06/15 01:03:36;;;;;;;6.97;3.73;;;;;;;;;;5071158;28;20229;-75
2022/06/15 01:06:07;;;;;;;4.07;3.67;;;;;;;;;;5071237;28;20664;-76
2022/06/15 01:08:34;;;;;;;5.80;3.77;;;;;;;;;;5090458;28;20643;-75
2022/06/15 01:11:14;;;;;;;3.83;3.53;;;;;;;;;;5080843;28;20197;-76
2022/06/15 01:13:41;;;;;;;6.50;3.90;;;;;;;;;;5090310;28;20221;-76
2022/06/15 01:16:16;;;;;;;5.13;4.00;;;;;;;;;;5080106;28;20259;-76
2022/06/15 01:19:07;;;;;;;6.33;3.80;;;;;;;;;;5071482;28;20209;-76
2022/06/15 01:21:34;;;;;;;6.30;3.80;;;;;;;;;;5071210;28;20216;-75
2022/06/15 01:24:04;;;;;;;3.77;3.47;;;;;;;;;;5070836;28;20243;-75
2022/06/15 01:26:51;;;;;;;10.77;6.13;;;;;;;;;;5071651;28;20667;-76
2022/06/15 01:29:37;;;;;;;7.87;5.50;;;;;;;;;;5071304;28;20221;-75
2022/06/15 01:32:10;;;;;;;5.90;4.70;;;;;;;;;;5071551;28;20686;-76
2022/06/15 01:34:56;;;;;;;4.83;4.33;;;;;;;;;;5070533;28;20212;-75
2022/06/15 01:37:32;;;;;;;5.20;3.83;;;;;;;;;;5080294;28;20208;-76
2022/06/15 01:40:05;;;;;;;7.70;4.73;;;;;;;;;;5091383;28;20391;-75
2022/06/15 01:42:35;;;;;;;6.20;3.93;;;;;;;;;;5090966;28;20278;-76
2022/06/15 01:45:07;;;;;;;6.40;4.10;;;;;;;;;;5071846;28;20250;-76
2022/06/15 01:47:35;;;;;;;4.60;3.53;;;;;;;;;;5090726;28;20207;-75
2022/06/15 01:50:09;;;;;;;6.27;4.33;;;;;;;;;;5080117;28;20216;-76
2022/06/15 01:52:41;;;;;;;5.87;3.83;;;;;;;;;;5052536;28;20268;-75
2022/06/15 01:55:13;;;;;;;8.10;3.87;;;;;;;;;;5069937;28;20622;-76
2022/06/15 01:57:42;;;;;;;7.70;4.10;;;;;;;;;;5072069;28;20262;-75
2022/06/15 02:00:11;;;;;;;5.70;4.43;;;;;;;;;;5090615;28;20204;-76
2022/06/15 02:02:48;;;;;;;5.30;4.00;;;;;;;;;;5071345;28;20710;-76
2022/06/15 02:05:28;;;;;;;4.57;4.00;;;;;;;;;;5090582;28;20295;-75
2022/06/15 02:08:15;;;;;;;6.67;4.30;;;;;;;;;;5085345;28;20285;-76
2022/06/15 02:10:57;;;;;;;5.33;4.37;;;;;;;;;;5090341;28;20197;-75
2022/06/15 02:13:35;;;;;;;5.70;3.90;;;;;;;;;;5089651;28;20238;-76
2022/06/15 02:16:05;;;;;;;5.23;4.10;;;;;;;;;;5090376;28;20200;-75
2022/06/15 02:18:33;;;;;;;4.23;3.83;;;;;;;;;;5090392;28;20239;-75
2022/06/15 02:21:09;;;;;;;4.93;3.87;;;;;;;;;;5090296;28;20580;-75
2022/06/15 02:23:38;;;;;;;4.43;3.90;;;;;;;;;;5089281;28;20228;-75
2022/06/15 02:26:06;;;;;;;5.47;4.00;;;;;;;;;;5072130;28;20254;-74
2022/06/15 02:28:36;;;;;;;5.53;3.97;;;;;;;;;;5090001;28;20231;-75
2022/06/15 02:31:04;;;;;;;4.17;3.80;;;;;;;;;;5090036;28;20733;-75
2022/06/15 02:33:32;;;;;;;6.50;4.07;;;;;;;;;;5089367;28;20315;-75
2022/06/15 02:36:00;;;;;;;6.13;3.60;;;;;;;;;;5090070;28;20266;-75
2022/06/15 02:38:29;;;;;;;5.20;3.37;;;;;;;;;;5089759;28;20206;-75
2022/06/15 02:40:57;;;;;;;5.30;3.77;;;;;;;;;;5071483;28;20628;-75
2022/06/15 02:43:26;;;;;;;5.97;3.80;;;;;;;;;;5089217;28;20652;-75
2022/06/15 02:45:55;;;;;;;5.83;4.37;;;;;;;;;;5089429;28;20211;-75
2022/06/15 02:48:22;;;;;;;4.23;3.63;;;;;;;;;;5072160;28;20247;-74
2022/06/15 02:51:05;;;;;;;4.50;3.70;;;;;;;;;;5090327;28;20204;-75
2022/06/15 02:53:33;;;;;;;5.83;4.40;;;;;;;;;;5089020;28;20270;-75
2022/06/15 02:56:02;;;;;;;6.23;3.60;;;;;;;;;;5071551;28;21025;-76
2022/06/15 02:58:31;;;;;;;5.90;4.40;;;;;;;;;;5075452;28;20304;-75
2022/06/15 03:00:59;;;;;;;4.33;3.87;;;;;;;;;;5069296;28;20212;-74
2022/06/15 03:03:28;;;;;;;6.70;4.07;;;;;;;;;;5068704;28;20222;-75
2022/06/15 03:05:55;;;;;;;5.30;3.70;;;;;;;;;;5069561;28;20262;-75
2022/06/15 03:08:23;;;;;;;4.47;4.07;;;;;;;;;;5068654;28;20520;-77
2022/06/15 03:10:51;;;;;;;6.70;4.23;;;;;;;;;;5088806;28;20201;-74
2022/06/15 03:13:19;;;;;;;6.73;4.70;;;;;;;;;;5088382;28;20216;-76
2022/06/15 03:15:46;;;;;;;5.20;4.43;;;;;;;;;;5085685;28;20277;-74
2022/06/15 03:18:14;;;;;;;5.17;4.23;;;;;;;;;;5088820;28;20277;-75
2022/06/15 03:20:41;;;;;;;5.83;4.33;;;;;;;;;;5089565;28;20216;-75
2022/06/15 03:23:09;;;;;;;4.57;4.17;;;;;;;;;;5088156;28;20258;-76
2022/06/15 03:25:37;;;;;;;5.17;4.27;;;;;;;;;;5089542;28;20619;-75
2022/06/15 03:28:05;;;;;;;4.30;3.90;;;;;;;;;;5088632;28;20208;-73
2022/06/15 03:30:33;;;;;;;5.50;3.97;;;;;;;;;;5089229;28;20200;-76
2022/06/15 03:33:00;;;;;;;5.93;3.80;;;;;;;;;;5087997;28;20220;-76
2022/06/15 03:35:36;;;;;;;5.63;3.83;;;;;;;;;;5088537;28;20295;-75
2022/06/15 03:38:08;;;;;;;5.03;3.80;;;;;;;;;;5088966;28;20677;-76
2022/06/15 03:40:36;;;;;;;6.70;4.00;;;;;;;;;;5089444;28;20616;-76
2022/06/15 03:43:04;;;;;;;5.97;4.17;;;;;;;;;;5070465;28;20220;-75
2022/06/15 03:45:31;;;;;;;4.40;4.00;;;;;;;;;;5088467;28;20209;-76
2022/06/15 03:47:59;;;;;;;6.67;4.40;;;;;;;;;;5086741;28;20686;-76
2022/06/15 03:50:27;;;;;;;8.20;4.50;;;;;;;;;;5055447;28;20208;-76
2022/06/15 03:52:55;;;;;;;6.40;4.27;;;;;;;;;;5087497;28;20754;-76
2022/06/15 03:55:25;;;;;;;5.60;4.57;;;;;;;;;;5087855;28;20232;-76
2022/06/15 03:57:52;;;;;;;5.10;4.50;;;;;;;;;;5088498;28;20249;-76
2022/06/15 04:00:21;;;;;;;5.13;4.10;;;;;;;;;;5088839;28;20792;-76
2022/06/15 04:02:48;;;;;;;5.53;4.63;;;;;;;;;;5088771;28;20221;-76
2022/06/15 04:05:17;;;;;;;6.17;4.43;;;;;;;;;;5069925;28;20654;-76
2022/06/15 04:10:44;;;;;;;6.87;4.40;;;;;;;;;;5042585;28;20655;-76
2022/06/15 04:13:14;;;;;;;7.10;4.10;;;;;;;;;;5087596;28;20725;-76
2022/06/15 04:15:42;;;;;;;5.33;4.57;;;;;;;;;;5070461;28;20208;-76
2022/06/15 04:18:09;;;;;;;5.77;4.20;;;;;;;;;;5088082;28;20857;-76
2022/06/15 04:20:37;;;;;;;7.00;4.03;;;;;;;;;;5087782;28;20732;-76
2022/06/15 04:23:06;;;;;;;4.70;4.20;;;;;;;;;;5076184;28;20239;-76
2022/06/15 04:25:40;;;;;;;4.87;4.00;;;;;;;;;;5067940;28;20228;-76
2022/06/15 04:28:08;;;;;;;6.87;4.17;;;;;;;;;;5067859;28;20259;-75
2022/06/15 04:30:36;;;;;;;4.67;4.10;;;;;;;;;;5067643;28;20205;-76
2022/06/15 04:33:03;;;;;;;4.97;4.37;;;;;;;;;;5066810;28;20257;-76
2022/06/15 04:35:31;;;;;;;5.33;4.73;;;;;;;;;;5067557;28;20209;-76
2022/06/15 04:37:58;;;;;;;5.03;4.40;;;;;;;;;;5082070;28;20479;-76
2022/06/15 04:40:26;;;;;;;5.03;4.17;;;;;;;;;;5073504;28;20213;-76
2022/06/15 04:42:53;;;;;;;5.63;4.97;;;;;;;;;;5048937;28;20271;-75
2022/06/15 04:45:20;;;;;;;6.63;4.57;;;;;;;;;;5067460;28;20202;-76
2022/06/15 04:47:55;;;;;;;7.60;4.70;;;;;;;;;;5050617;28;20205;-76
2022/06/15 04:50:22;;;;;;;4.83;4.30;;;;;;;;;;5049958;28;20644;-76
2022/06/15 04:52:49;;;;;;;6.33;4.03;;;;;;;;;;5075548;28;20217;-75
2022/06/15 04:55:18;;;;;;;5.77;4.30;;;;;;;;;;5087649;28;20564;-76
2022/06/15 04:57:46;;;;;;;5.20;4.53;;;;;;;;;;5070327;28;20235;-76
2022/06/15 05:00:15;;;;;;;4.73;4.33;;;;;;;;;;5049395;28;20232;-76
2022/06/15 05:02:43;;;;;;;6.77;4.63;;;;;;;;;;5065538;28;20256;-76
2022/06/15 05:05:10;;;;;;;5.93;4.13;;;;;;;;;;5067250;28;20205;-76
2022/06/15 05:07:38;;;;;;;5.83;4.43;;;;;;;;;;5079449;28;20579;-76
2022/06/15 05:10:06;;;;;;;8.03;4.80;;;;;;;;;;5087274;28;20217;-74
2022/06/15 05:12:33;;;;;;;5.97;4.20;;;;;;;;;;5086279;28;20765;-76
2022/06/15 05:15:01;;;;;;;5.60;4.10;;;;;;;;;;5068061;28;20721;-75
2022/06/15 05:17:32;;;;;;;8.10;4.77;;;;;;;;;;5066921;28;20292;-76
2022/06/15 05:19:59;;;;;;;7.27;5.00;;;;;;;;;;5067208;28;20552;-76
2022/06/15 05:22:26;;;;;;;6.33;5.07;;;;;;;;;;5049347;28;20283;-76
2022/06/15 05:24:54;;;;;;;5.17;3.40;;;;;;;;;;5066981;28;20201;-75
2022/06/15 05:27:21;;;;;;;7.47;3.90;;;;;;;;;;5067218;28;20479;-76
2022/06/15 05:29:48;;;;;;;4.85;3.30;;;;;;;;;;5067158;28;20225;-76
2022/06/15 05:32:15;;;;;;;5.47;2.78;;;;;;;;;;5087079;28;20267;-75
2022/06/15 05:34:43;;;;;;;3.70;2.60;;;;;;;;;;5087288;28;20213;-77
2022/06/15 05:37:11;;;;;;;6.32;2.78;;;;;;;;;;5087722;28;20671;-75
2022/06/15 05:39:40;;;;;;;3.60;2.63;;;;;;;;;;5086978;28;20203;-76
2022/06/15 05:42:08;;;;;;;4.70;2.58;;;;;;;;;;5090991;28;20225;-77
2022/06/15 05:47:02;;;;;;;3.95;2.75;;;;;;;;;;5089667;28;20486;-76
2022/06/15 05:49:30;;;;;;;3.38;2.20;;;;;;;;;;5072099;28;20593;-76
2022/06/15 05:51:58;;;;;;;6.82;2.75;;;;;;;;;;5084020;28;20217;-76
2022/06/15 05:54:25;;;;;;;4.30;2.50;;;;;;;;;;5091116;28;20262;-77
2022/06/15 05:56:52;;;;;;;3.63;2.47;;;;;;;;;;5074371;28;20618;-77
2022/06/15 05:59:20;;;;;;;6.32;2.45;;;;;;;;;;5091677;28;20630;-76
2022/06/15 06:01:47;;;;;;;5.00;2.83;;;;;;;;;;5089925;28;20209;-76
2022/06/15 06:04:16;;;;;;;3.92;2.90;;;;;;;;;;5090656;28;20205;-77
2022/06/15 06:06:43;;;;;;;4.93;2.90;;;;;;;;;;5091383;28;20397;-77
2022/06/15 06:09:11;;;;;;;3.35;2.67;;;;;;;;;;5091137;28;20216;-76
2022/06/15 06:11:39;;;;;;;5.00;2.78;;;;;;;;;;5090592;28;20196;-76
2022/06/15 06:14:08;;;;;;;4.00;2.50;;;;;;;;;;5090714;28;20259;-76
2022/06/15 06:16:35;;;;;;;4.32;3.03;;;;;;;;;;5072075;28;20616;-76
2022/06/15 06:19:02;;;;;;;3.25;2.85;;;;;;;;;;5070638;28;20217;-75
2022/06/15 06:21:30;;;;;;;6.35;3.10;;;;;;;;;;5070373;28;20200;-76
2022/06/15 06:23:57;;;;;;;4.80;2.88;;;;;;;;;;5070107;28;20275;-76
2022/06/15 06:26:26;;;;;;;4.45;2.97;;;;;;;;;;5052787;28;20263;-75
2022/06/15 06:28:54;;;;;;;4.45;3.00;;;;;;;;;;5070053;28;20210;-75
2022/06/15 06:31:21;;;;;;;5.05;3.10;;;;;;;;;;5070112;28;20255;-75
2022/06/15 06:33:49;;;;;;;5.25;3.20;;;;;;;;;;5068713;28;20217;-75
2022/06/15 06:36:33;;;;;;;7.10;2.92;;;;;;;;;;5070708;28;20609;-75
2022/06/15 06:39:03;;;;;;;8.07;3.45;;;;;;;;;;5078902;28;20207;-75
2022/06/15 06:41:32;;;;;;;6.25;3.10;;;;;;;;;;5072688;28;20627;-76
2022/06/15 06:44:03;;;;;;;3.95;3.25;;;;;;;;;;5089863;28;20209;-75
2022/06/15 06:46:31;;;;;;;8.45;3.65;;;;;;;;;;5090122;28;20212;-75
2022/06/15 06:48:59;;;;;;;5.57;3.63;;;;;;;;;;5089682;28;20423;-76
2022/06/15 06:51:27;;;;;;;5.22;3.15;;;;;;;;;;5090021;28;20650;-76
2022/06/15 06:53:54;;;;;;;9.32;3.65;;;;;;;;;;5088949;28;20217;-75
2022/06/15 06:56:22;;;;;;;4.75;3.22;;;;;;;;;;5076704;28;20210;-75
2022/06/15 06:58:49;;;;;;;7.43;3.60;;;;;;;;;;5069123;28;20209;-75
2022/06/15 07:01:16;;;;;;;5.93;3.10;;;;;;;;;;5068764;28;20221;-74
2022/06/15 07:03:44;;;;;;;7.03;2.95;;;;;;;;;;5068839;28;20233;-75
2022/06/15 07:06:12;;;;;;;6.40;3.60;;;;;;;;;;5051341;28;20670;-75
2022/06/15 07:08:39;;;;;;;5.43;3.17;;;;;;;;;;5088824;28;20228;-75
2022/06/15 07:11:15;;;;;;;5.15;3.20;;;;;;;;;;5088165;28;20228;-74
2022/06/15 07:13:43;;;;;;;4.50;2.83;;;;;;;;;;5083372;28;20236;-75
2022/06/15 07:16:12;;;;;;;4.65;3.10;;;;;;;;;;5089082;28;20250;-74
2022/06/15 07:18:39;;;;;;;3.67;2.80;;;;;;;;;;5089115;28;20212;-74
2022/06/15 07:21:08;;;;;;;4.65;3.20;;;;;;;;;;5089147;28;20283;-75
2022/06/15 07:23:35;;;;;;;4.70;3.28;;;;;;;;;;5088220;28;20663;-76
2022/06/15 07:26:04;;;;;;;8.57;3.30;;;;;;;;;;5088265;28;20262;-76
2022/06/15 07:28:31;;;;;;;3.25;2.90;;;;;;;;;;5070586;28;20213;-76
2022/06/15 07:30:58;;;;;;;4.13;2.97;;;;;;;;;;5052371;28;20225;-76
2022/06/15 07:33:26;;;;;;;3.00;2.70;;;;;;;;;;5050992;28;20255;-75
2022/06/15 07:35:53;;;;;;;4.45;2.65;;;;;;;;;;5068108;28;20242;-76
2022/06/15 07:38:21;;;;;;;3.28;2.78;;;;;;;;;;5067900;28;20224;-75
2022/06/15 07:41:02;;;;;;;4.93;2.90;;;;;;;;;;5088445;28;20204;-75
2022/06/15 07:43:29;;;;;;;4.05;2.90;;;;;;;;;;5087899;28;20232;-76
2022/06/15 07:45:57;;;;;;;5.30;3.45;;;;;;;;;;5068657;28;20201;-76
2022/06/15 07:51:22;;;;;;;3.33;2.80;;;;;;;;;;5087925;28;20245;-76
2022/06/15 07:53:50;;;;;;;4.05;2.92;;;;;;;;;;5087907;28;20224;-76
2022/06/15 07:56:17;;;;;;;4.75;3.15;;;;;;;;;;5088316;28;20201;-76
2022/06/15 07:58:45;;;;;;;4.13;3.25;;;;;;;;;;5088493;28;20258;-76
2022/06/15 08:01:12;;;;;;;3.45;2.92;;;;;;;;;;5086957;28;20559;-76
2022/06/15 08:03:39;;;;;;;4.82;3.20;;;;;;;;;;5080652;28;20287;-75
2022/06/15 08:06:07;;;;;;;4.13;3.05;;;;;;;;;;5067567;28;20251;-76
2022/06/15 08:08:34;;;;;;;6.18;3.08;;;;;;;;;;5087677;28;20303;-76
2022/06/15 08:11:01;;;;;;;5.95;2.80;;;;;;;;;;5087384;28;20585;-76
2022/06/15 08:13:28;;;;;;;3.53;3.00;;;;;;;;;;5086868;28;20213;-75
2022/06/15 08:15:56;;;;;;;2.88;2.50;;;;;;;;;;5087603;28;20655;-76
2022/06/15 08:18:26;;;;;;;3.35;3.00;;;;;;;;;;5070287;28;20200;-75
2022/06/15 08:20:59;;;;;;;4.95;3.17;;;;;;;;;;5060740;28;20217;-76
2022/06/15 08:23:28;;;;;;;4.15;2.83;;;;;;;;;;5067181;28;20229;-76
2022/06/15 08:25:58;;;;;;;5.32;3.10;;;;;;;;;;5052417;28;20263;-76
2022/06/15 08:28:28;;;;;;;6.63;3.13;;;;;;;;;;5052515;28;20206;-75
2022/06/15 08:30:56;;;;;;;3.45;3.00;;;;;;;;;;5052486;28;20221;-76
2022/06/15 08:33:24;;;;;;;3.15;2.83;;;;;;;;;;5052112;28;20595;-76
2022/06/15 08:35:51;;;;;;;3.22;2.80;;;;;;;;;;5049636;28;20217;-75
2022/06/15 08:38:21;;;;;;;3.70;2.72;;;;;;;;;;5079201;28;20646;-76
2022/06/15 08:40:51;;;;;;;5.47;2.72;;;;;;;;;;5087185;28;20626;-75
2022/06/15 08:43:37;;;;;;;3.60;3.00;;;;;;;;;;5087012;28;20278;-76
2022/06/15 08:46:12;;;;;;;4.95;2.53;;;;;;;;;;5087224;28;20212;-76
2022/06/15 08:48:42;;;;;;;3.55;2.92;;;;;;;;;;5087636;28;20200;-75
2022/06/15 08:51:21;;;;;;;3.10;2.80;;;;;;;;;;5087118;28;20341;-76
2022/06/15 08:53:56;;;;;;;4.85;2.90;;;;;;;;;;5086752;28;20751;-75
2022/06/15 08:56:29;;;;;;;5.68;2.55;;;;;;;;;;5067151;28;20747;-76
2022/06/15 08:58:56;;;;;;;5.53;2.97;;;;;;;;;;5067047;28;20428;-76
2022/06/15 09:01:28;;;;;;;4.78;2.70;;;;;;;;;;5066435;28;20213;-76
2022/06/15 09:04:15;;;;;;;4.88;2.70;;;;;;;;;;5067033;28;20271;-76
2022/06/15 09:06:49;;;;;;;3.53;2.67;;;;;;;;;;5071545;28;20215;-75
2022/06/15 09:09:25;;;;;;;3.22;2.72;;;;;;;;;;5087514;28;20697;-76
2022/06/15 09:15:07;;;;;;;4.13;3.08;;;;;;;;;;5086191;28;20207;-75
2022/06/15 09:17:35;;;;;;;4.00;2.75;;;;;;;;;;5089852;28;20279;-76
2022/06/15 09:20:06;;;;;;;2.33;1.90;;;;;;;;;;5091656;28;20285;-76
2022/06/15 09:22:36;;;;;;;2.30;1.80;;;;;;;;;;5090853;28;20243;-75
2022/06/15 09:25:03;;;;;;;4.70;2.30;;;;;;;;;;5091228;28;20630;-76
2022/06/15 09:27:35;;;;;;;2.78;1.92;;;;;;;;;;5091927;28;20262;-76
2022/06/15 09:30:05;;;;;;;2.75;2.25;;;;;;;;;;5072679;28;20251;-75
2022/06/15 09:32:42;;;;;;;2.38;1.88;;;;;;;;;;5071723;28;20271;-76
2022/06/15 09:35:23;;;;;;;2.30;1.95;;;;;;;;;;5071193;28;20197;-75
2022/06/15 09:37:52;;;;;;;2.80;1.85;;;;;;;;;;5084545;28;20225;-75
2022/06/15 09:40:20;;;;;;;2.47;1.90;;;;;;;;;;5091702;28;20205;-76
2022/06/15 09:42:50;;;;;;;1.70;1.60;;;;;;;;;;5091050;28;20228;-76
2022/06/15 09:45:21;;;;;;;3.88;2.05;;;;;;;;;;5086917;28;20214;-76
2022/06/15 09:47:54;;;;;;;1.50;1.40;;;;;;;;;;5091227;28;20212;-76
2022/06/15 09:50:24;;;;;;;2.47;1.70;;;;;;;;;;5091061;28;20232;-74
2022/06/15 09:53:11;;;;;;;1.95;1.70;;;;;;;;;;5072337;28;20228;-75
2022/06/15 09:55:41;;;;;;;2.28;1.60;;;;;;;;;;5068893;28;20648;-76
2022/06/15 09:58:32;;;;;;;3.03;1.38;;;;;;;;;;5089460;28;20189;-75
2022/06/15 10:00:59;;;;;;;1.42;1.33;;;;;;;;;;5072852;28;20205;-76
2022/06/15 10:03:29;;;;;;;2.17;1.38;;;;;;;;;;5087484;28;20316;-76
2022/06/15 10:05:59;;;;;;;1.60;1.50;;;;;;;;;;5090741;28;20262;-76
2022/06/15 10:08:27;;;;;;;1.98;1.55;;;;;;;;;;5089645;28;20197;-76
2022/06/15 10:10:59;;;;;;;3.08;1.40;;;;;;;;;;5071738;28;20225;-75
2022/06/15 10:13:29;;;;;;;1.98;1.30;;;;;;;;;;5071227;28;20227;-76
2022/06/15 10:16:05;;;;;;;1.60;1.45;;;;;;;;;;5090065;28;20278;-75
2022/06/15 10:18:35;;;;;;;1.40;1.30;;;;;;;;;;5072322;28;20337;-74
2022/06/15 10:21:05;;;;;;;2.35;1.30;;;;;;;;;;5089945;28;20633;-76
2022/06/15 10:23:49;;;;;;;2.53;1.73;;;;;;;;;;5088896;28;20221;-75
2022/06/15 10:26:29;;;;;;;2.70;1.23;;;;;;;;;;5089878;28;20410;-76
2022/06/15 10:28:57;;;;;;;1.63;1.45;;;;;;;;;;5089138;28;20201;-76
2022/06/15 10:31:34;;;;;;;1.77;1.58;;;;;;;;;;5071478;28;20231;-75
2022/06/15 10:34:18;;;;;;;2.13;1.50;;;;;;;;;;5089372;28;20207;-75
2022/06/15 10:36:51;;;;;;;1.65;1.33;;;;;;;;;;5089388;28;20204;-75
2022/06/15 10:39:24;;;;;;;2.25;2.03;;;;;;;;;;5089251;28;20193;-74
2022/06/15 10:42:01;;;;;;;1.60;1.50;;;;;;;;;;5089917;28;20228;-76
2022/06/15 10:44:32;;;;;;;6.18;4.38;;;;;;;;;;5088839;28;20201;-75
2022/06/15 10:47:07;;;;;;;2.10;1.90;;;;;;;;;;5089543;28;20689;-75
2022/06/15 10:49:36;;;;;;;2.33;2.10;;;;;;;;;;5089732;28;20583;-76
2022/06/15 10:52:15;;;;;;;4.10;1.50;;;;;;;;;;5087149;28;20654;-76
2022/06/15 11:03:09;;;;;;;1.58;1.30;;;;;;;;;;5088784;28;20225;-74
2022/06/15 11:05:37;;;;;;;2.22;1.38;;;;;;;;;;5090389;28;20560;-75
2022/06/15 11:08:11;;;;;;;1.52;1.23;;;;;;;;;;5089477;28;20383;-76
2022/06/15 11:10:41;;;;;;;2.58;1.50;;;;;;;;;;5080982;28;20225;-76
2022/06/15 11:13:21;;;;;;;1.23;1.13;;;;;;;;;;5068429;28;20751;-75
2022/06/15 11:18:37;;;;;;;2.88;1.20;;;;;;;;;;5068393;28;20209;-75
2022/06/15 11:21:07;;;;;;;1.75;1.00;;;;;;;;;;5068675;28;20679;-75
2022/06/15 11:23:37;;;;;;;1.75;1.50;;;;;;;;;;5067835;28;20271;-76
2022/06/15 11:28:59;;;;;;;3.22;2.78;;;;;;;;;;5086471;28;20209;-75
2022/06/15 11:31:47;;;;;;;2.33;1.60;;;;;;;;;;5088492;28;20289;-75
2022/06/15 11:34:20;;;;;;;1.48;1.38;;;;;;;;;;5087942;28;20204;-75
2022/06/15 11:36:55;;;;;;;2.15;1.20;;;;;;;;;;5088389;28;20650;-75
2022/06/15 11:39:22;;;;;;;2.58;1.30;;;;;;;;;;5088049;28;20196;-75
2022/06/15 11:41:51;;;;;;;1.65;1.55;;;;;;;;;;5088707;28;20212;-75
2022/06/15 11:44:22;;;;;;;1.13;1.10;;;;;;;;;;5082872;28;20201;-75
2022/06/15 11:46:49;;;;;;;15.43;8.32;;;;;;;;;;5068036;28;20212;-75
2022/06/15 11:49:22;;;;;;;4.82;2.80;;;;;;;;;;5050693;28;20263;-75
2022/06/15 11:51:52;;;;;;;7.25;3.78;;;;;;;;;;5080482;28;20221;-74
2022/06/15 11:54:27;;;;;;;1.77;1.38;;;;;;;;;;5087278;28;20250;-75
2022/06/15 11:57:19;;;;;;;1.60;1.30;;;;;;;;;;5088200;28;20219;-75
2022/06/15 11:59:53;;;;;;;1.30;1.20;;;;;;;;;;5079642;28;20284;-74
2022/06/15 12:02:44;;;;;;;1.40;1.20;;;;;;;;;;5074013;28;20230;-75
2022/06/15 12:05:16;;;;;;;2.10;1.42;;;;;;;;;;5067247;28;20242;-76
2022/06/15 12:07:59;;;;;;;1.65;1.40;;;;;;;;;;5063392;28;20205;-76
2022/06/15 12:10:45;;;;;;;2.33;1.80;;;;;;;;;;5088313;28;20205;-76
2022/06/15 12:13:19;;;;;;;1.67;1.50;;;;;;;;;;5087495;28;20228;-75
2022/06/15 12:15:53;;;;;;;2.05;1.50;;;;;;;;;;5088670;28;20634;-75
2022/06/15 12:18:33;;;;;;;2.00;1.15;;;;;;;;;;5069655;28;20634;-74
2022/06/15 12:21:04;;;;;;;2.17;1.40;;;;;;;;;;5070310;28;20630;-76
2022/06/15 12:23:41;;;;;;;2.58;2.20;;;;;;;;;;5087307;28;20750;-76
2022/06/15 12:26:13;;;;;;;5.78;3.00;;;;;;;;;;5088024;28;20670;-76
2022/06/15 12:28:52;;;;;;;2.70;1.80;;;;;;;;;;5088366;28;20212;-75
2022/06/15 12:31:27;;;;;;;1.40;1.30;;;;;;;;;;5088653;28;20370;-76
2022/06/15 12:33:58;;;;;;;2.03;1.33;;;;;;;;;;5087366;28;20705;-76
2022/06/15 12:36:25;;;;;;;2.28;1.20;;;;;;;;;;5087016;28;20223;-76
2022/06/15 12:39:08;;;;;;;1.90;1.50;;;;;;;;;;5069294;28;20254;-76
2022/06/15 12:44:26;;;;;;;2.10;1.90;;;;;;;;;;5087350;28;20204;-76
2022/06/15 12:46:54;;;;;;;1.73;1.35;;;;;;;;;;5088272;28;20227;-75
2022/06/15 12:50:00;;;;;;;1.67;1.42;;;;;;;;;;5088077;28;20230;-76
2022/06/15 12:52:39;;;;;;;1.30;1.20;;;;;;;;;;5084103;28;20224;-75
2022/06/15 12:55:16;;;;;;;1.42;1.33;;;;;;;;;;5091990;28;20200;-76
2022/06/15 12:57:52;;;;;;;1.60;1.30;;;;;;;;;;5092669;28;20201;-76
2022/06/15 13:00:31;;;;;;;1.50;1.40;;;;;;;;;;5074238;28;20204;-75
2022/06/15 13:02:59;;;;;;;1.73;1.50;;;;;;;;;;5073622;28;20752;-76
2022/06/15 13:05:28;;;;;;;3.85;1.70;;;;;;;;;;5091437;28;20200;-76
2022/06/15 13:08:14;;;;;;;1.58;1.30;;;;;;;;;;5091535;28;20216;-75
2022/06/15 13:10:53;;;;;;;3.90;1.63;;;;;;;;;;5075041;28;20404;-76
2022/06/15 13:13:26;;;;;;;1.40;1.30;;;;;;;;;;5070737;28;20221;-76
2022/06/15 13:15:56;;;;;;;2.13;1.52;;;;;;;;;;5071145;28;20615;-76
2022/06/15 13:18:42;;;;;;;1.42;1.33;;;;;;;;;;5071239;28;20207;-76
2022/06/15 13:21:10;;;;;;;1.58;1.48;;;;;;;;;;5071102;28;20214;-74
2022/06/15 13:23:42;;;;;;;2.85;1.60;;;;;;;;;;5070022;28;20600;-75
2022/06/15 13:26:16;;;;;;;2.20;1.75;;;;;;;;;;5073757;28;20220;-74
2022/06/15 13:28:46;;;;;;;2.53;2.00;;;;;;;;;;5091133;28;20233;-74
2022/06/15 13:31:33;;;;;;;2.80;1.50;;;;;;;;;;5091515;28;20682;-76
2022/06/15 13:34:01;;;;;;;3.13;1.60;;;;;;;;;;5090500;28;20282;-75
2022/06/15 13:36:29;;;;;;;4.70;1.73;;;;;;;;;;5090594;28;20097;-75
2022/06/15 13:38:57;;;;;;;2.45;1.60;;;;;;;;;;5090062;28;20205;-75
2022/06/15 13:41:24;;;;;;;3.20;2.05;;;;;;;;;;5091053;28;20201;-76
2022/06/15 13:43:52;;;;;;;2.42;1.50;;;;;;;;;;5090228;28;20293;-75
2022/06/15 13:46:39;;;;;;;1.98;1.60;;;;;;;;;;5090968;28;20205;-75
2022/06/15 13:49:10;;;;;;;2.08;1.80;;;;;;;;;;5072394;28;20212;-75
2022/06/15 13:51:44;;;;;;;2.03;1.80;;;;;;;;;;5071507;28;20356;-75
2022/06/15 13:54:26;;;;;;;2.70;1.70;;;;;;;;;;5072256;28;20725;-76
2022/06/15 13:56:57;;;;;;;1.98;1.55;;;;;;;;;;5090687;28;20250;-75
2022/06/15 13:59:43;;;;;;;3.10;1.70;;;;;;;;;;5090520;28;20678;-74
2022/06/15 14:02:11;;;;;;;2.78;1.70;;;;;;;;;;5089492;28;20229;-75
2022/06/15 14:04:47;;;;;;;1.98;1.70;;;;;;;;;;5072012;28;20211;-76
2022/06/15 14:07:17;;;;;;;1.60;1.50;;;;;;;;;;5090689;28;20896;-76
2022/06/15 14:10:07;;;;;;;2.67;1.90;;;;;;;;;;5089911;28;20197;-75
2022/06/15 14:12:49;;;;;;;3.78;1.52;;;;;;;;;;5090307;28;20653;-75
2022/06/15 14:15:17;;;;;;;2.85;1.50;;;;;;;;;;5090328;28;20628;-76
2022/06/15 14:17:44;;;;;;;;;;;;;;;;;;5082416;28;20059;-76
2022/06/15 14:20:11;;;;;;;;;;;;;;;;;;5052708;28;20428;-76
2022/06/15 14:22:38;;;;;;;;;;;;;;;;;;5069891;28;19920;-76
2022/06/15 14:25:05;;;;;;;;;;;;;;;;;;5070170;28;19925;-75
2022/06/15 14:27:32;;;;;;;;;;;;;;;;;;5070654;28;20320;-75
2022/06/15 14:30:01;;;;;;;;;;;;;;;;;;5070549;28;19920;-75
2022/06/15 14:32:28;;;;;;;;;;;;;;;;;;5069972;28;20401;-75
2022/06/15 14:35:05;;;;;;;2.10;1.90;;;;;;;;;;5078625;28;19949;-76
2022/06/15 14:37:33;;;;;;;1.92;1.80;;;;;;;;;;5071495;28;20662;-75
2022/06/15 14:40:02;;;;;;;2.10;1.90;;;;;;;;;;5089507;28;20663;-75
2022/06/15 14:42:54;;;;;;;4.55;2.88;;;;;;;;;;5071643;28;20221;-75
2022/06/15 14:45:24;;;;;;;3.17;2.17;;;;;;;;;;5089373;28;20296;-75
2022/06/15 14:47:53;;;;;;;3.63;2.33;;;;;;;;;;5089919;28;20205;-75
2022/06/15 14:50:20;;;;;;;3.67;1.73;;;;;;;;;;5089625;28;20201;-76
2022/06/15 14:52:48;;;;;;;4.93;3.80;;;;;;;;;;5085877;28;20224;-75
2022/06/15 14:55:18;;;;;;;2.38;2.00;;;;;;;;;;5089519;28;20208;-75
2022/06/15 14:57:45;;;;;;;3.03;1.70;;;;;;;;;;5089805;28;20197;-75
2022/06/15 15:00:24;;;;;;;3.58;1.60;;;;;;;;;;5071921;28;20201;-75
2022/06/15 15:02:53;;;;;;;1.90;1.67;;;;;;;;;;5088323;28;20724;-76
2022/06/15 15:05:24;;;;;;;4.60;1.73;;;;;;;;;;5089824;28;20205;-75
2022/06/15 15:08:14;;;;;;;3.60;1.85;;;;;;;;;;5086125;28;20242;-75
2022/06/15 15:10:45;;;;;;;2.92;1.70;;;;;;;;;;5088114;28;20205;-75
2022/06/15 15:13:15;;;;;;;6.10;4.80;;;;;;;;;;5088736;28;20237;-75
2022/06/15 15:15:48;;;;;;;6.18;3.30;;;;;;;;;;5070967;28;20205;-75
2022/06/15 15:18:17;;;;;;;2.50;2.25;;;;;;;;;;5088904;28;20197;-74
2022/06/15 15:20:49;;;;;;;2.83;1.67;;;;;;;;;;5087881;28;20258;-75
2022/06/15 15:23:17;;;;;;;3.55;1.77;;;;;;;;;;5088800;28;20584;-74
2022/06/15 15:25:55;;;;;;;3.00;1.73;;;;;;;;;;5080472;28;20265;-74
2022/06/15 15:34:08;;;;;;;2.38;2.17;;;;;;;;;;5068051;28;20257;-75
2022/06/15 15:39:32;;;;;;;1.80;1.70;;;;;;;;;;5083539;28;20253;-76
2022/06/15 15:41:59;;;;;;;2.33;1.90;;;;;;;;;;5068410;28;20753;-76
2022/06/15 15:44:27;;;;;;;2.72;2.10;;;;;;;;;;5087170;28;20205;-76
2022/06/15 15:46:54;;;;;;;2.60;2.00;;;;;;;;;;5088333;28;20205;-74